sensor_id;sensor_type;location;lat;lon;timestamp;temperature;humidity
3380;DHT22;1703;51.964;7.642;2022-08-18T00:02:02;22.40;99.90
3380;DHT22;1703;51.964;7.642;2022-08-18T00:04:29;22.40;99.90
3380;DHT22;1703;51.964;7.642;2022-08-18T00:06:56;22.30;99.90
3380;DHT22;1703;51.964;7.642;2022-08-18T00:09:23;22.30;99.90
3380;DHT22;1703;51.964;7.642;2022-08-18T00:11:50;22.30;99.90
3380;DHT22;1703;51.964;7.642;2022-08-18T00:14:18;22.30;99.90
3380;DHT22;1703;51.964;7.642;2022-08-18T00:16:47;22.20;99.90
3380;DHT22;1703;51.964;7.642;2022-08-18T00:19:14;22.20;99.90
3380;DHT22;1703;51.964;7.642;2022-08-18T00:21:41;22.20;99.90
3380;DHT22;1703;51.964;7.642;2022-08-18T00:24:08;22.20;99.90
3380;DHT22;1703;51.964;7.642;2022-08-18T00:26:35;22.10;99.90
3380;DHT22;1703;51.964;7.642;2022-08-18T00:29:02;22.10;99.90
3380;DHT22;1703;51.964;7.642;2022-08-18T00:31:29;22.10;99.90
3380;DHT22;1703;51.964;7.642;2022-08-18T00:33:57;22.00;99.90
3380;DHT22;1703;51.964;7.642;2022-08-18T00:36:24;22.00;99.90
3380;DHT22;1703;51.964;7.642;2022-08-18T00:38:52;21.90;99.90
3380;DHT22;1703;51.964;7.642;2022-08-18T00:41:19;21.90;99.90
3380;DHT22;1703;51.964;7.642;2022-08-18T00:43:49;21.90;99.90
3380;DHT22;1703;51.964;7.642;2022-08-18T00:46:19;21.90;99.90
3380;DHT22;1703;51.964;7.642;2022-08-18T00:48:47;21.90;99.90
3380;DHT22;1703;51.964;7.642;2022-08-18T00:51:18;21.90;99.90
3380;DHT22;1703;51.964;7.642;2022-08-18T00:53:49;21.90;99.90
3380;DHT22;1703;51.964;7.642;2022-08-18T00:56:19;21.90;99.90
3380;DHT22;1703;51.964;7.642;2022-08-18T00:58:52;21.90;99.90
3380;DHT22;1703;51.964;7.642;2022-08-18T01:01:22;21.90;99.90
3380;DHT22;1703;51.964;7.642;2022-08-18T01:03:53;21.80;99.90
3380;DHT22;1703;51.964;7.642;2022-08-18T01:06:29;21.70;99.90
3380;DHT22;1703;51.964;7.642;2022-08-18T01:08:59;21.60;99.90
3380;DHT22;1703;51.964;7.642;2022-08-18T01:11:26;21.50;99.90
3380;DHT22;1703;51.964;7.642;2022-08-18T01:13:53;21.50;99.90
3380;DHT22;1703;51.964;7.642;2022-08-18T01:16:21;21.50;99.90
3380;DHT22;1703;51.964;7.642;2022-08-18T01:19:06;21.50;99.90
3380;DHT22;1703;51.964;7.642;2022-08-18T01:21:58;21.50;99.90
3380;DHT22;1703;51.964;7.642;2022-08-18T01:24:30;21.30;99.90
3380;DHT22;1703;51.964;7.642;2022-08-18T01:27:17;21.10;99.90
3380;DHT22;1703;51.964;7.642;2022-08-18T01:29:44;20.90;99.90
3380;DHT22;1703;51.964;7.642;2022-08-18T01:32:15;20.80;99.90
3380;DHT22;1703;51.964;7.642;2022-08-18T01:34:45;20.70;99.90
3380;DHT22;1703;51.964;7.642;2022-08-18T01:37:13;20.80;99.90
3380;DHT22;1703;51.964;7.642;2022-08-18T01:39:43;20.80;99.90
3380;DHT22;1703;51.964;7.642;2022-08-18T01:42:11;20.90;99.90
3380;DHT22;1703;51.964;7.642;2022-08-18T01:44:38;20.80;99.90
3380;DHT22;1703;51.964;7.642;2022-08-18T01:47:06;20.80;99.90
3380;DHT22;1703;51.964;7.642;2022-08-18T01:49:33;20.70;99.90
3380;DHT22;1703;51.964;7.642;2022-08-18T01:52:00;20.70;99.90
3380;DHT22;1703;51.964;7.642;2022-08-18T01:54:29;20.70;99.90
3380;DHT22;1703;51.964;7.642;2022-08-18T01:56:57;20.80;99.90
3380;DHT22;1703;51.964;7.642;2022-08-18T01:59:24;20.80;99.90
3380;DHT22;1703;51.964;7.642;2022-08-18T02:01:51;20.80;99.90
3380;DHT22;1703;51.964;7.642;2022-08-18T02:04:22;20.60;99.90
3380;DHT22;1703;51.964;7.642;2022-08-18T02:06:50;20.60;99.90
3380;DHT22;1703;51.964;7.642;2022-08-18T02:09:17;20.70;99.90
3380;DHT22;1703;51.964;7.642;2022-08-18T02:11:44;20.80;99.90
3380;DHT22;1703;51.964;7.642;2022-08-18T02:14:13;20.70;99.90
3380;DHT22;1703;51.964;7.642;2022-08-18T02:16:40;20.70;99.90
3380;DHT22;1703;51.964;7.642;2022-08-18T02:19:06;20.70;99.90
3380;DHT22;1703;51.964;7.642;2022-08-18T02:21:33;20.80;99.90
3380;DHT22;1703;51.964;7.642;2022-08-18T02:24:00;20.70;99.90
3380;DHT22;1703;51.964;7.642;2022-08-18T02:26:27;20.70;99.90
3380;DHT22;1703;51.964;7.642;2022-08-18T02:28:54;20.60;99.90
3380;DHT22;1703;51.964;7.642;2022-08-18T02:31:23;20.60;99.90
3380;DHT22;1703;51.964;7.642;2022-08-18T02:33:51;20.60;99.90
3380;DHT22;1703;51.964;7.642;2022-08-18T02:36:19;20.50;99.90
3380;DHT22;1703;51.964;7.642;2022-08-18T02:38:46;20.50;99.90
3380;DHT22;1703;51.964;7.642;2022-08-18T02:41:12;20.50;99.90
3380;DHT22;1703;51.964;7.642;2022-08-18T02:43:41;20.50;99.90
3380;DHT22;1703;51.964;7.642;2022-08-18T02:46:08;20.50;99.90
3380;DHT22;1703;51.964;7.642;2022-08-18T02:48:36;20.50;99.90
3380;DHT22;1703;51.964;7.642;2022-08-18T02:51:05;20.50;99.90
3380;DHT22;1703;51.964;7.642;2022-08-18T02:53:34;20.60;99.90
3380;DHT22;1703;51.964;7.642;2022-08-18T02:56:07;20.60;99.90
3380;DHT22;1703;51.964;7.642;2022-08-18T02:58:48;20.60;99.90
3380;DHT22;1703;51.964;7.642;2022-08-18T03:01:15;20.60;99.90
3380;DHT22;1703;51.964;7.642;2022-08-18T03:03:43;20.60;99.90
3380;DHT22;1703;51.964;7.642;2022-08-18T03:06:10;20.70;99.90
3380;DHT22;1703;51.964;7.642;2022-08-18T03:08:37;20.70;99.90
3380;DHT22;1703;51.964;7.642;2022-08-18T03:11:04;20.70;99.90
3380;DHT22;1703;51.964;7.642;2022-08-18T03:13:30;20.80;99.90
3380;DHT22;1703;51.964;7.642;2022-08-18T03:15:57;20.90;99.90
3380;DHT22;1703;51.964;7.642;2022-08-18T03:18:24;20.90;99.90
3380;DHT22;1703;51.964;7.642;2022-08-18T03:20:52;20.90;99.90
3380;DHT22;1703;51.964;7.642;2022-08-18T03:23:19;20.90;99.90
3380;DHT22;1703;51.964;7.642;2022-08-18T03:25:48;20.90;99.90
3380;DHT22;1703;51.964;7.642;2022-08-18T03:28:16;20.90;99.90
3380;DHT22;1703;51.964;7.642;2022-08-18T03:30:43;20.80;99.90
3380;DHT22;1703;51.964;7.642;2022-08-18T03:33:10;20.80;99.90
3380;DHT22;1703;51.964;7.642;2022-08-18T03:35:36;20.70;99.90
3380;DHT22;1703;51.964;7.642;2022-08-18T03:38:07;20.70;99.90
3380;DHT22;1703;51.964;7.642;2022-08-18T03:40:34;20.60;99.90
3380;DHT22;1703;51.964;7.642;2022-08-18T03:43:03;20.70;99.90
3380;DHT22;1703;51.964;7.642;2022-08-18T03:45:32;20.70;99.90
3380;DHT22;1703;51.964;7.642;2022-08-18T03:47:59;20.50;99.90
3380;DHT22;1703;51.964;7.642;2022-08-18T03:50:26;20.40;99.90
3380;DHT22;1703;51.964;7.642;2022-08-18T03:52:54;20.40;99.90
3380;DHT22;1703;51.964;7.642;2022-08-18T03:55:25;20.40;99.90
3380;DHT22;1703;51.964;7.642;2022-08-18T03:57:57;20.40;99.90
3380;DHT22;1703;51.964;7.642;2022-08-18T04:00:24;20.50;99.90
3380;DHT22;1703;51.964;7.642;2022-08-18T04:02:51;20.50;99.90
3380;DHT22;1703;51.964;7.642;2022-08-18T04:05:18;20.50;99.90
3380;DHT22;1703;51.964;7.642;2022-08-18T04:07:45;20.50;99.90
3380;DHT22;1703;51.964;7.642;2022-08-18T04:10:12;20.50;99.90
3380;DHT22;1703;51.964;7.642;2022-08-18T04:12:41;20.60;99.90
3380;DHT22;1703;51.964;7.642;2022-08-18T04:15:08;20.60;99.90
3380;DHT22;1703;51.964;7.642;2022-08-18T04:17:36;20.60;99.90
3380;DHT22;1703;51.964;7.642;2022-08-18T04:20:04;20.60;99.90
3380;DHT22;1703;51.964;7.642;2022-08-18T04:22:31;20.70;99.90
3380;DHT22;1703;51.964;7.642;2022-08-18T04:24:59;20.60;99.90
3380;DHT22;1703;51.964;7.642;2022-08-18T04:27:27;20.60;99.90
3380;DHT22;1703;51.964;7.642;2022-08-18T04:29:55;20.60;99.90
3380;DHT22;1703;51.964;7.642;2022-08-18T04:32:22;20.70;99.90
3380;DHT22;1703;51.964;7.642;2022-08-18T04:34:49;20.70;99.90
3380;DHT22;1703;51.964;7.642;2022-08-18T04:37:16;20.70;99.90
3380;DHT22;1703;51.964;7.642;2022-08-18T04:39:43;20.60;99.90
3380;DHT22;1703;51.964;7.642;2022-08-18T04:42:11;20.60;99.90
3380;DHT22;1703;51.964;7.642;2022-08-18T04:44:37;20.50;99.90
3380;DHT22;1703;51.964;7.642;2022-08-18T04:47:06;20.50;99.90
3380;DHT22;1703;51.964;7.642;2022-08-18T04:49:34;20.40;99.90
3380;DHT22;1703;51.964;7.642;2022-08-18T04:52:03;20.40;99.90
3380;DHT22;1703;51.964;7.642;2022-08-18T04:54:48;20.20;99.90
3380;DHT22;1703;51.964;7.642;2022-08-18T04:57:17;20.20;99.90
3380;DHT22;1703;51.964;7.642;2022-08-18T04:59:46;20.20;99.90
3380;DHT22;1703;51.964;7.642;2022-08-18T05:02:16;20.20;99.90
3380;DHT22;1703;51.964;7.642;2022-08-18T05:04:44;20.20;99.90
3380;DHT22;1703;51.964;7.642;2022-08-18T05:07:13;20.30;99.90
3380;DHT22;1703;51.964;7.642;2022-08-18T05:09:40;20.30;99.90
3380;DHT22;1703;51.964;7.642;2022-08-18T05:12:08;20.40;99.90
3380;DHT22;1703;51.964;7.642;2022-08-18T05:14:37;20.40;99.90
3380;DHT22;1703;51.964;7.642;2022-08-18T05:17:04;20.50;99.90
3380;DHT22;1703;51.964;7.642;2022-08-18T05:19:32;20.50;99.90
3380;DHT22;1703;51.964;7.642;2022-08-18T05:22:00;20.50;99.90
3380;DHT22;1703;51.964;7.642;2022-08-18T05:24:29;20.50;99.90
3380;DHT22;1703;51.964;7.642;2022-08-18T05:26:57;20.50;99.90
3380;DHT22;1703;51.964;7.642;2022-08-18T05:29:24;20.50;99.90
3380;DHT22;1703;51.964;7.642;2022-08-18T05:31:52;20.60;99.90
3380;DHT22;1703;51.964;7.642;2022-08-18T05:34:20;20.60;99.90
3380;DHT22;1703;51.964;7.642;2022-08-18T05:37:15;20.70;99.90
3380;DHT22;1703;51.964;7.642;2022-08-18T05:39:54;20.70;99.90
3380;DHT22;1703;51.964;7.642;2022-08-18T05:42:23;20.70;99.90
3380;DHT22;1703;51.964;7.642;2022-08-18T05:44:54;20.70;99.90
3380;DHT22;1703;51.964;7.642;2022-08-18T05:47:23;20.70;99.90
3380;DHT22;1703;51.964;7.642;2022-08-18T05:49:51;20.70;99.90
3380;DHT22;1703;51.964;7.642;2022-08-18T05:52:21;20.70;99.90
3380;DHT22;1703;51.964;7.642;2022-08-18T05:54:53;20.70;99.90
3380;DHT22;1703;51.964;7.642;2022-08-18T05:57:42;20.70;99.90
3380;DHT22;1703;51.964;7.642;2022-08-18T06:00:11;20.80;99.90
3380;DHT22;1703;51.964;7.642;2022-08-18T06:02:43;20.70;99.90
3380;DHT22;1703;51.964;7.642;2022-08-18T06:05:14;20.70;99.90
3380;DHT22;1703;51.964;7.642;2022-08-18T06:07:51;20.70;99.90
3380;DHT22;1703;51.964;7.642;2022-08-18T06:10:19;20.80;99.90
3380;DHT22;1703;51.964;7.642;2022-08-18T06:12:48;20.80;99.90
3380;DHT22;1703;51.964;7.642;2022-08-18T06:15:22;20.70;99.90
3380;DHT22;1703;51.964;7.642;2022-08-18T06:18:11;20.70;99.90
3380;DHT22;1703;51.964;7.642;2022-08-18T06:20:51;20.60;99.90
3380;DHT22;1703;51.964;7.642;2022-08-18T06:23:28;20.60;99.90
3380;DHT22;1703;51.964;7.642;2022-08-18T06:26:04;20.60;99.90
3380;DHT22;1703;51.964;7.642;2022-08-18T06:28:44;20.60;99.90
3380;DHT22;1703;51.964;7.642;2022-08-18T06:31:17;20.70;99.90
3380;DHT22;1703;51.964;7.642;2022-08-18T06:33:52;20.80;99.90
3380;DHT22;1703;51.964;7.642;2022-08-18T06:36:33;20.80;99.90
3380;DHT22;1703;51.964;7.642;2022-08-18T06:39:11;20.90;99.90
3380;DHT22;1703;51.964;7.642;2022-08-18T06:41:42;20.90;99.90
3380;DHT22;1703;51.964;7.642;2022-08-18T06:44:15;20.90;99.90
3380;DHT22;1703;51.964;7.642;2022-08-18T06:46:46;20.90;99.90
3380;DHT22;1703;51.964;7.642;2022-08-18T06:49:23;20.80;99.90
3380;DHT22;1703;51.964;7.642;2022-08-18T06:51:53;20.80;99.90
3380;DHT22;1703;51.964;7.642;2022-08-18T06:54:30;20.90;99.90
3380;DHT22;1703;51.964;7.642;2022-08-18T06:56:57;20.80;99.90
3380;DHT22;1703;51.964;7.642;2022-08-18T06:59:26;20.70;99.90
3380;DHT22;1703;51.964;7.642;2022-08-18T07:01:57;20.80;99.90
3380;DHT22;1703;51.964;7.642;2022-08-18T07:04:31;20.90;99.90
3380;DHT22;1703;51.964;7.642;2022-08-18T07:06:58;21.00;99.90
3380;DHT22;1703;51.964;7.642;2022-08-18T07:09:38;21.10;99.90
3380;DHT22;1703;51.964;7.642;2022-08-18T07:12:07;21.10;99.90
3380;DHT22;1703;51.964;7.642;2022-08-18T07:14:48;21.00;99.90
3380;DHT22;1703;51.964;7.642;2022-08-18T07:17:20;21.00;99.90
3380;DHT22;1703;51.964;7.642;2022-08-18T07:19:54;21.00;99.90
3380;DHT22;1703;51.964;7.642;2022-08-18T07:22:21;21.00;99.90
3380;DHT22;1703;51.964;7.642;2022-08-18T07:24:51;21.00;99.90
3380;DHT22;1703;51.964;7.642;2022-08-18T07:27:20;21.00;99.90
3380;DHT22;1703;51.964;7.642;2022-08-18T07:29:59;20.90;99.90
3380;DHT22;1703;51.964;7.642;2022-08-18T07:32:35;20.90;99.90
3380;DHT22;1703;51.964;7.642;2022-08-18T07:35:07;20.90;99.90
3380;DHT22;1703;51.964;7.642;2022-08-18T07:37:39;20.90;99.90
3380;DHT22;1703;51.964;7.642;2022-08-18T07:40:19;20.90;99.90
3380;DHT22;1703;51.964;7.642;2022-08-18T07:42:51;20.90;99.90
3380;DHT22;1703;51.964;7.642;2022-08-18T07:45:25;20.90;99.90
3380;DHT22;1703;51.964;7.642;2022-08-18T07:47:57;21.00;99.90
3380;DHT22;1703;51.964;7.642;2022-08-18T07:50:27;21.00;99.90
3380;DHT22;1703;51.964;7.642;2022-08-18T07:53:06;21.00;99.90
3380;DHT22;1703;51.964;7.642;2022-08-18T07:55:39;21.20;99.90
3380;DHT22;1703;51.964;7.642;2022-08-18T07:58:18;21.20;99.90
3380;DHT22;1703;51.964;7.642;2022-08-18T08:00:55;21.10;99.90
3380;DHT22;1703;51.964;7.642;2022-08-18T08:03:30;21.10;99.90
3380;DHT22;1703;51.964;7.642;2022-08-18T08:06:06;21.10;99.90
3380;DHT22;1703;51.964;7.642;2022-08-18T08:08:39;21.00;99.90
3380;DHT22;1703;51.964;7.642;2022-08-18T08:11:17;21.00;99.90
3380;DHT22;1703;51.964;7.642;2022-08-18T08:13:56;21.10;99.90
3380;DHT22;1703;51.964;7.642;2022-08-18T08:16:35;21.10;99.90
3380;DHT22;1703;51.964;7.642;2022-08-18T08:19:23;21.10;99.90
3380;DHT22;1703;51.964;7.642;2022-08-18T08:21:59;21.10;99.90
3380;DHT22;1703;51.964;7.642;2022-08-18T08:24:32;21.10;99.90
3380;DHT22;1703;51.964;7.642;2022-08-18T08:27:14;21.20;99.90
3380;DHT22;1703;51.964;7.642;2022-08-18T08:29:48;21.30;99.90
3380;DHT22;1703;51.964;7.642;2022-08-18T08:32:27;21.30;99.90
3380;DHT22;1703;51.964;7.642;2022-08-18T08:35:00;21.30;99.90
3380;DHT22;1703;51.964;7.642;2022-08-18T08:37:34;21.30;99.90
3380;DHT22;1703;51.964;7.642;2022-08-18T08:40:07;21.30;99.90
3380;DHT22;1703;51.964;7.642;2022-08-18T08:42:40;21.30;99.90
3380;DHT22;1703;51.964;7.642;2022-08-18T08:45:11;21.30;99.90
3380;DHT22;1703;51.964;7.642;2022-08-18T08:47:43;21.40;99.90
3380;DHT22;1703;51.964;7.642;2022-08-18T08:50:16;21.50;99.90
3380;DHT22;1703;51.964;7.642;2022-08-18T08:52:46;21.60;99.90
3380;DHT22;1703;51.964;7.642;2022-08-18T08:55:17;21.90;99.90
3380;DHT22;1703;51.964;7.642;2022-08-18T08:57:54;21.80;99.90
3380;DHT22;1703;51.964;7.642;2022-08-18T09:00:23;21.80;99.90
3380;DHT22;1703;51.964;7.642;2022-08-18T09:03:05;21.80;99.90
3380;DHT22;1703;51.964;7.642;2022-08-18T09:05:37;21.90;99.90
3380;DHT22;1703;51.964;7.642;2022-08-18T09:08:30;21.90;99.90
3380;DHT22;1703;51.964;7.642;2022-08-18T09:11:14;21.90;99.90
3380;DHT22;1703;51.964;7.642;2022-08-18T09:14:07;22.00;99.90
3380;DHT22;1703;51.964;7.642;2022-08-18T09:16:46;22.10;99.90
3380;DHT22;1703;51.964;7.642;2022-08-18T09:19:34;22.20;99.90
3380;DHT22;1703;51.964;7.642;2022-08-18T09:22:14;22.10;99.90
3380;DHT22;1703;51.964;7.642;2022-08-18T09:24:49;22.20;99.90
3380;DHT22;1703;51.964;7.642;2022-08-18T09:27:29;22.20;99.90
3380;DHT22;1703;51.964;7.642;2022-08-18T09:30:00;22.30;99.90
3380;DHT22;1703;51.964;7.642;2022-08-18T09:32:51;22.50;99.90
3380;DHT22;1703;51.964;7.642;2022-08-18T09:35:40;22.70;99.90
3380;DHT22;1703;51.964;7.642;2022-08-18T09:38:13;22.80;99.90
3380;DHT22;1703;51.964;7.642;2022-08-18T09:41:07;23.00;99.90
3380;DHT22;1703;51.964;7.642;2022-08-18T09:43:58;22.80;99.90
3380;DHT22;1703;51.964;7.642;2022-08-18T09:46:55;23.00;99.90
3380;DHT22;1703;51.964;7.642;2022-08-18T09:49:41;23.10;99.90
3380;DHT22;1703;51.964;7.642;2022-08-18T09:55:38;23.40;99.90
3380;DHT22;1703;51.964;7.642;2022-08-18T09:58:18;23.50;99.90
3380;DHT22;1703;51.964;7.642;2022-08-18T10:04:19;23.60;99.90
3380;DHT22;1703;51.964;7.642;2022-08-18T10:06:51;23.60;99.90
3380;DHT22;1703;51.964;7.642;2022-08-18T10:09:27;23.50;99.90
3380;DHT22;1703;51.964;7.642;2022-08-18T10:12:17;23.50;99.90
3380;DHT22;1703;51.964;7.642;2022-08-18T10:15:03;23.40;99.90
3380;DHT22;1703;51.964;7.642;2022-08-18T10:17:45;23.40;99.90
3380;DHT22;1703;51.964;7.642;2022-08-18T10:20:28;23.40;99.90
3380;DHT22;1703;51.964;7.642;2022-08-18T10:22:56;23.30;99.90
3380;DHT22;1703;51.964;7.642;2022-08-18T10:25:34;23.30;99.90
3380;DHT22;1703;51.964;7.642;2022-08-18T10:28:02;23.30;99.90
3380;DHT22;1703;51.964;7.642;2022-08-18T10:30:46;23.30;99.90
3380;DHT22;1703;51.964;7.642;2022-08-18T10:33:58;23.30;99.90
3380;DHT22;1703;51.964;7.642;2022-08-18T10:36:45;23.40;99.90
3380;DHT22;1703;51.964;7.642;2022-08-18T10:39:15;23.40;99.90
3380;DHT22;1703;51.964;7.642;2022-08-18T10:41:56;23.50;99.90
3380;DHT22;1703;51.964;7.642;2022-08-18T10:44:24;23.60;99.90
3380;DHT22;1703;51.964;7.642;2022-08-18T10:46:52;23.40;99.90
3380;DHT22;1703;51.964;7.642;2022-08-18T10:49:23;23.50;99.90
3380;DHT22;1703;51.964;7.642;2022-08-18T10:52:26;23.60;99.90
3380;DHT22;1703;51.964;7.642;2022-08-18T10:58:27;23.80;99.90
3380;DHT22;1703;51.964;7.642;2022-08-18T11:01:08;23.80;99.90
3380;DHT22;1703;51.964;7.642;2022-08-18T11:03:48;23.90;99.90
3380;DHT22;1703;51.964;7.642;2022-08-18T11:06:20;23.90;99.90
3380;DHT22;1703;51.964;7.642;2022-08-18T11:08:51;24.00;99.90
3380;DHT22;1703;51.964;7.642;2022-08-18T11:11:21;24.10;99.90
3380;DHT22;1703;51.964;7.642;2022-08-18T11:13:58;24.00;99.90
3380;DHT22;1703;51.964;7.642;2022-08-18T11:16:37;24.10;99.90
3380;DHT22;1703;51.964;7.642;2022-08-18T11:19:07;24.20;99.90
3380;DHT22;1703;51.964;7.642;2022-08-18T11:21:39;24.30;99.90
3380;DHT22;1703;51.964;7.642;2022-08-18T11:24:11;24.10;99.90
3380;DHT22;1703;51.964;7.642;2022-08-18T11:26:40;24.00;99.90
3380;DHT22;1703;51.964;7.642;2022-08-18T11:29:21;24.00;99.90
3380;DHT22;1703;51.964;7.642;2022-08-18T11:31:53;24.00;99.90
3380;DHT22;1703;51.964;7.642;2022-08-18T11:34:29;24.10;99.90
3380;DHT22;1703;51.964;7.642;2022-08-18T11:36:58;24.20;99.90
3380;DHT22;1703;51.964;7.642;2022-08-18T11:39:28;24.40;99.90
3380;DHT22;1703;51.964;7.642;2022-08-18T11:41:55;24.40;99.90
3380;DHT22;1703;51.964;7.642;2022-08-18T11:44:25;24.40;99.90
3380;DHT22;1703;51.964;7.642;2022-08-18T11:47:08;24.40;99.90
3380;DHT22;1703;51.964;7.642;2022-08-18T11:49:36;24.20;99.90
3380;DHT22;1703;51.964;7.642;2022-08-18T11:52:19;24.30;99.90
3380;DHT22;1703;51.964;7.642;2022-08-18T11:54:50;24.40;99.90
3380;DHT22;1703;51.964;7.642;2022-08-18T12:00:34;24.60;99.90
3380;DHT22;1703;51.964;7.642;2022-08-18T12:03:03;24.70;99.90
3380;DHT22;1703;51.964;7.642;2022-08-18T12:05:40;24.80;99.90
3380;DHT22;1703;51.964;7.642;2022-08-18T12:08:19;24.90;99.90
3380;DHT22;1703;51.964;7.642;2022-08-18T12:11:01;25.10;99.90
3380;DHT22;1703;51.964;7.642;2022-08-18T12:13:28;25.20;99.90
3380;DHT22;1703;51.964;7.642;2022-08-18T12:16:11;25.20;99.90
3380;DHT22;1703;51.964;7.642;2022-08-18T12:18:38;25.20;99.90
3380;DHT22;1703;51.964;7.642;2022-08-18T12:21:05;25.40;99.90
3380;DHT22;1703;51.964;7.642;2022-08-18T12:23:36;25.40;99.90
3380;DHT22;1703;51.964;7.642;2022-08-18T12:26:05;25.40;99.90
3380;DHT22;1703;51.964;7.642;2022-08-18T12:28:32;25.30;99.90
3380;DHT22;1703;51.964;7.642;2022-08-18T12:30:59;25.00;99.90
3380;DHT22;1703;51.964;7.642;2022-08-18T12:33:26;24.90;99.90
3380;DHT22;1703;51.964;7.642;2022-08-18T12:35:52;24.80;99.90
3380;DHT22;1703;51.964;7.642;2022-08-18T12:38:19;24.90;99.90
3380;DHT22;1703;51.964;7.642;2022-08-18T12:40:48;25.10;99.90
3380;DHT22;1703;51.964;7.642;2022-08-18T12:43:16;25.20;99.90
3380;DHT22;1703;51.964;7.642;2022-08-18T12:45:43;25.30;99.90
3380;DHT22;1703;51.964;7.642;2022-08-18T12:48:10;25.60;99.90
3380;DHT22;1703;51.964;7.642;2022-08-18T12:50:38;25.70;99.90
3380;DHT22;1703;51.964;7.642;2022-08-18T12:53:05;25.80;99.90
3380;DHT22;1703;51.964;7.642;2022-08-18T12:55:35;25.90;99.90
3380;DHT22;1703;51.964;7.642;2022-08-18T12:58:02;25.90;99.90
3380;DHT22;1703;51.964;7.642;2022-08-18T13:00:31;26.00;99.90
3380;DHT22;1703;51.964;7.642;2022-08-18T13:02:58;25.90;99.90
3380;DHT22;1703;51.964;7.642;2022-08-18T13:05:24;25.80;99.90
3380;DHT22;1703;51.964;7.642;2022-08-18T13:07:52;25.90;99.90
3380;DHT22;1703;51.964;7.642;2022-08-18T13:10:19;25.70;99.90
3380;DHT22;1703;51.964;7.642;2022-08-18T13:12:46;25.70;99.90
3380;DHT22;1703;51.964;7.642;2022-08-18T13:15:15;25.60;99.90
3380;DHT22;1703;51.964;7.642;2022-08-18T13:17:43;25.50;99.90
3380;DHT22;1703;51.964;7.642;2022-08-18T13:20:13;25.40;99.90
3380;DHT22;1703;51.964;7.642;2022-08-18T13:22:40;25.20;99.90
3380;DHT22;1703;51.964;7.642;2022-08-18T13:25:10;25.10;99.90
3380;DHT22;1703;51.964;7.642;2022-08-18T13:27:38;25.00;99.90
3380;DHT22;1703;51.964;7.642;2022-08-18T13:30:07;25.00;99.90
3380;DHT22;1703;51.964;7.642;2022-08-18T13:32:35;24.80;99.90
3380;DHT22;1703;51.964;7.642;2022-08-18T13:35:04;24.70;99.90
3380;DHT22;1703;51.964;7.642;2022-08-18T13:37:31;24.60;99.90
3380;DHT22;1703;51.964;7.642;2022-08-18T13:39:59;24.60;99.90
3380;DHT22;1703;51.964;7.642;2022-08-18T13:42:26;24.70;99.90
3380;DHT22;1703;51.964;7.642;2022-08-18T13:44:54;24.70;99.90
3380;DHT22;1703;51.964;7.642;2022-08-18T13:47:21;24.80;99.90
3380;DHT22;1703;51.964;7.642;2022-08-18T13:49:48;24.80;99.90
3380;DHT22;1703;51.964;7.642;2022-08-18T13:52:17;25.00;99.90
3380;DHT22;1703;51.964;7.642;2022-08-18T13:54:44;25.00;99.90
3380;DHT22;1703;51.964;7.642;2022-08-18T13:57:11;25.10;99.90
3380;DHT22;1703;51.964;7.642;2022-08-18T13:59:38;25.30;99.90
3380;DHT22;1703;51.964;7.642;2022-08-18T14:02:08;25.30;99.90
3380;DHT22;1703;51.964;7.642;2022-08-18T14:04:35;25.40;99.90
3380;DHT22;1703;51.964;7.642;2022-08-18T14:07:03;25.40;99.90
3380;DHT22;1703;51.964;7.642;2022-08-18T14:09:32;25.40;99.90
3380;DHT22;1703;51.964;7.642;2022-08-18T14:11:58;25.60;99.90
3380;DHT22;1703;51.964;7.642;2022-08-18T14:14:25;26.00;99.90
3380;DHT22;1703;51.964;7.642;2022-08-18T14:16:52;26.20;99.90
3380;DHT22;1703;51.964;7.642;2022-08-18T14:19:19;26.50;99.90
3380;DHT22;1703;51.964;7.642;2022-08-18T14:22:03;26.70;99.90
3380;DHT22;1703;51.964;7.642;2022-08-18T14:24:49;26.70;99.90
3380;DHT22;1703;51.964;7.642;2022-08-18T14:27:35;26.90;99.90
3380;DHT22;1703;51.964;7.642;2022-08-18T14:30:04;27.30;99.90
3380;DHT22;1703;51.964;7.642;2022-08-18T14:32:31;27.20;99.90
3380;DHT22;1703;51.964;7.642;2022-08-18T14:35:00;26.90;99.90
3380;DHT22;1703;51.964;7.642;2022-08-18T14:37:28;26.70;99.90
3380;DHT22;1703;51.964;7.642;2022-08-18T14:39:56;26.80;99.90
3380;DHT22;1703;51.964;7.642;2022-08-18T14:42:24;26.70;99.90
3380;DHT22;1703;51.964;7.642;2022-08-18T14:44:50;26.70;99.90
3380;DHT22;1703;51.964;7.642;2022-08-18T14:47:17;26.70;99.90
3380;DHT22;1703;51.964;7.642;2022-08-18T14:49:44;26.80;99.90
3380;DHT22;1703;51.964;7.642;2022-08-18T14:52:11;26.80;99.90
3380;DHT22;1703;51.964;7.642;2022-08-18T14:54:38;26.90;99.90
3380;DHT22;1703;51.964;7.642;2022-08-18T14:57:07;26.90;99.90
3380;DHT22;1703;51.964;7.642;2022-08-18T14:59:36;26.90;99.90
3380;DHT22;1703;51.964;7.642;2022-08-18T15:02:03;26.80;99.90
3380;DHT22;1703;51.964;7.642;2022-08-18T15:04:31;26.80;99.90
3380;DHT22;1703;51.964;7.642;2022-08-18T15:06:58;26.80;99.90
3380;DHT22;1703;51.964;7.642;2022-08-18T15:09:25;26.70;99.90
3380;DHT22;1703;51.964;7.642;2022-08-18T15:11:52;26.60;99.90
3380;DHT22;1703;51.964;7.642;2022-08-18T15:14:21;26.60;99.90
3380;DHT22;1703;51.964;7.642;2022-08-18T15:16:48;26.50;99.90
3380;DHT22;1703;51.964;7.642;2022-08-18T15:19:15;26.40;99.90
3380;DHT22;1703;51.964;7.642;2022-08-18T15:21:41;26.30;99.90
3380;DHT22;1703;51.964;7.642;2022-08-18T15:24:26;26.30;99.90
3380;DHT22;1703;51.964;7.642;2022-08-18T15:27:10;26.30;99.90
3380;DHT22;1703;51.964;7.642;2022-08-18T15:29:39;26.40;99.90
3380;DHT22;1703;51.964;7.642;2022-08-18T15:32:05;26.30;99.90
3380;DHT22;1703;51.964;7.642;2022-08-18T15:34:33;26.20;99.90
3380;DHT22;1703;51.964;7.642;2022-08-18T15:37:00;26.10;99.90
3380;DHT22;1703;51.964;7.642;2022-08-18T15:39:27;26.20;99.90
3380;DHT22;1703;51.964;7.642;2022-08-18T15:41:54;26.20;99.90
3380;DHT22;1703;51.964;7.642;2022-08-18T15:44:22;26.20;99.90
3380;DHT22;1703;51.964;7.642;2022-08-18T15:46:50;26.40;99.90
3380;DHT22;1703;51.964;7.642;2022-08-18T15:49:18;26.30;99.90
3380;DHT22;1703;51.964;7.642;2022-08-18T15:51:45;26.20;99.90
3380;DHT22;1703;51.964;7.642;2022-08-18T15:54:11;26.30;99.90
3380;DHT22;1703;51.964;7.642;2022-08-18T15:56:38;26.50;99.90
3380;DHT22;1703;51.964;7.642;2022-08-18T15:59:05;26.60;99.90
3380;DHT22;1703;51.964;7.642;2022-08-18T16:01:35;26.50;99.90
3380;DHT22;1703;51.964;7.642;2022-08-18T16:04:04;26.40;99.90
3380;DHT22;1703;51.964;7.642;2022-08-18T16:06:33;26.20;99.90
3380;DHT22;1703;51.964;7.642;2022-08-18T16:09:00;26.20;99.90
3380;DHT22;1703;51.964;7.642;2022-08-18T16:11:28;26.20;99.90
3380;DHT22;1703;51.964;7.642;2022-08-18T16:13:54;26.20;99.90
3380;DHT22;1703;51.964;7.642;2022-08-18T16:16:23;26.20;99.90
3380;DHT22;1703;51.964;7.642;2022-08-18T16:18:51;26.10;99.90
3380;DHT22;1703;51.964;7.642;2022-08-18T16:21:21;26.20;99.90
3380;DHT22;1703;51.964;7.642;2022-08-18T16:23:49;26.30;99.90
3380;DHT22;1703;51.964;7.642;2022-08-18T16:26:18;26.20;99.90
3380;DHT22;1703;51.964;7.642;2022-08-18T16:28:47;26.20;99.90
3380;DHT22;1703;51.964;7.642;2022-08-18T16:31:18;26.00;99.90
3380;DHT22;1703;51.964;7.642;2022-08-18T16:33:50;25.90;99.90
3380;DHT22;1703;51.964;7.642;2022-08-18T16:36:20;25.90;99.90
3380;DHT22;1703;51.964;7.642;2022-08-18T16:38:50;25.90;99.90
3380;DHT22;1703;51.964;7.642;2022-08-18T16:41:17;25.90;99.90
3380;DHT22;1703;51.964;7.642;2022-08-18T16:43:45;25.90;99.90